createdAt,value
2022-11-25T00:01:40.427Z,7.23
2022-11-25T00:04:08.745Z,7.43
2022-11-25T00:06:38.967Z,7.63
2022-11-25T00:09:11.482Z,7.90
2022-11-25T00:11:42.039Z,6.10
2022-11-25T00:14:14.899Z,7.33
2022-11-25T00:16:48.338Z,7.13
2022-11-25T00:19:18.025Z,6.73
2022-11-25T00:21:47.903Z,6.37
2022-11-25T00:24:18.495Z,6.13
2022-11-25T00:26:46.881Z,7.17
2022-11-25T00:29:15.669Z,8.03
2022-11-25T00:31:44.720Z,9.03
2022-11-25T00:34:14.352Z,8.33
2022-11-25T00:36:43.316Z,8.67
2022-11-25T00:39:15.874Z,9.80
2022-11-25T00:42:02.452Z,9.07
2022-11-25T00:44:37.721Z,9.40
2022-11-25T00:47:10.333Z,9.13
2022-11-25T00:49:40.124Z,11.27
2022-11-25T00:52:09.766Z,8.93
2022-11-25T00:54:39.750Z,11.43
2022-11-25T00:57:08.058Z,11.03
2022-11-25T00:59:36.539Z,11.00
2022-11-25T01:02:05.438Z,11.03
2022-11-25T01:04:34.463Z,10.23
2022-11-25T01:07:03.011Z,9.33
2022-11-25T01:09:32.299Z,9.47
2022-11-25T01:12:02.278Z,8.77
2022-11-25T01:14:32.810Z,8.77
2022-11-25T01:17:01.516Z,9.03
2022-11-25T01:19:30.327Z,8.70
2022-11-25T01:22:01.616Z,9.23
2022-11-25T01:24:30.215Z,9.17
2022-11-25T01:26:58.533Z,8.30
2022-11-25T01:29:29.478Z,10.00
2022-11-25T01:31:58.078Z,9.83
2022-11-25T01:34:28.569Z,10.23
2022-11-25T01:36:58.792Z,9.47
2022-11-25T01:39:32.515Z,9.50
2022-11-25T01:42:02.432Z,10.00
2022-11-25T01:44:36.345Z,8.90
2022-11-25T01:47:13.255Z,9.10
2022-11-25T01:49:47.235Z,9.67
2022-11-25T01:52:23.073Z,9.70
2022-11-25T01:54:55.290Z,9.80
2022-11-25T01:57:31.711Z,9.07
2022-11-25T02:00:05.613Z,9.30
2022-11-25T02:02:46.086Z,9.23
2022-11-25T02:05:19.298Z,8.07
2022-11-25T02:07:54.038Z,8.77
2022-11-25T02:10:28.402Z,8.87
2022-11-25T02:12:57.454Z,9.00
2022-11-25T02:15:29.822Z,9.20
2022-11-25T02:17:58.474Z,9.27
2022-11-25T02:20:27.469Z,8.20
2022-11-25T02:23:04.521Z,8.77
2022-11-25T02:25:37.267Z,8.77
2022-11-25T02:28:14.656Z,8.50
2022-11-25T02:30:44.194Z,8.40
2022-11-25T02:33:14.079Z,7.77
2022-11-25T02:35:45.541Z,8.17
2022-11-25T02:38:17.482Z,7.37
2022-11-25T02:40:49.868Z,8.03
2022-11-25T02:43:19.011Z,7.67
2022-11-25T02:45:58.853Z,7.80
2022-11-25T02:48:52.918Z,7.80
2022-11-25T02:51:22.592Z,7.50
2022-11-25T02:53:52.236Z,7.20
2022-11-25T02:56:26.816Z,7.30
2022-11-25T02:58:55.198Z,7.47
2022-11-25T03:01:29.828Z,7.70
2022-11-25T03:03:58.569Z,6.63
2022-11-25T03:06:29.685Z,7.40
2022-11-25T03:08:58.114Z,7.70
2022-11-25T03:11:43.727Z,7.80
2022-11-25T03:14:12.566Z,7.80
2022-11-25T03:16:41.067Z,8.40
2022-11-25T03:19:09.651Z,8.70
2022-11-25T03:21:37.997Z,8.80
2022-11-25T03:24:07.758Z,9.07
2022-11-25T03:26:37.482Z,9.00
2022-11-25T03:29:07.619Z,8.53
2022-11-25T03:31:37.008Z,8.87
2022-11-25T03:34:05.725Z,9.20
2022-11-25T03:36:34.429Z,8.90
2022-11-25T03:39:03.408Z,9.07
2022-11-25T03:41:32.086Z,11.17
2022-11-25T03:44:02.101Z,12.03
2022-11-25T03:46:30.591Z,9.00
2022-11-25T03:48:59.759Z,9.30
2022-11-25T03:51:29.309Z,9.90
2022-11-25T03:53:58.140Z,9.27
2022-11-25T03:56:27.000Z,9.03
2022-11-25T03:58:55.731Z,10.47
2022-11-25T04:01:25.741Z,12.30
2022-11-25T04:03:54.283Z,9.57
2022-11-25T04:06:23.946Z,9.63
2022-11-25T04:08:54.618Z,9.30
2022-11-25T04:11:43.409Z,8.53
2022-11-25T04:14:12.315Z,8.00
2022-11-25T04:16:42.100Z,9.83
2022-11-25T04:19:10.846Z,9.40
2022-11-25T04:21:39.711Z,9.20
2022-11-25T04:24:09.306Z,8.43
2022-11-25T04:26:37.796Z,9.00
2022-11-25T04:29:06.206Z,8.63
2022-11-25T04:31:35.575Z,9.13
2022-11-25T04:34:06.223Z,10.40
2022-11-25T04:36:35.894Z,9.60
2022-11-25T04:39:05.079Z,10.30
2022-11-25T04:41:34.757Z,10.23
2022-11-25T04:44:03.562Z,11.87
2022-11-25T04:46:39.076Z,9.53
2022-11-25T04:49:09.539Z,10.13
2022-11-25T04:51:39.230Z,11.80
2022-11-25T04:54:09.668Z,10.93
2022-11-25T04:56:41.080Z,13.97
2022-11-25T04:59:27.821Z,9.13
2022-11-25T05:01:56.194Z,13.40
2022-11-25T05:04:39.263Z,9.13
2022-11-25T05:07:07.658Z,10.27
2022-11-25T05:09:36.575Z,9.37
2022-11-25T05:12:20.944Z,8.40
2022-11-25T05:14:50.193Z,9.37
2022-11-25T05:17:21.119Z,9.97
2022-11-25T05:19:52.368Z,9.73
2022-11-25T05:22:23.990Z,8.50
2022-11-25T05:24:53.534Z,9.00
2022-11-25T05:27:23.178Z,10.87
2022-11-25T05:29:56.022Z,9.53
2022-11-25T05:32:25.909Z,10.53
2022-11-25T05:34:57.747Z,10.33
2022-11-25T05:37:26.118Z,8.60
2022-11-25T05:40:01.182Z,9.10
2022-11-25T05:42:48.187Z,9.93
2022-11-25T05:45:18.427Z,8.83
2022-11-25T05:47:47.229Z,9.80
2022-11-25T05:50:21.881Z,10.10
2022-11-25T05:53:04.910Z,7.90
2022-11-25T05:55:35.609Z,8.23
2022-11-25T05:58:07.225Z,8.90
2022-11-25T06:00:36.777Z,8.93
2022-11-25T06:03:10.667Z,8.80
2022-11-25T06:05:41.231Z,8.23
2022-11-25T06:08:10.114Z,8.57
2022-11-25T06:10:41.198Z,9.50
2022-11-25T06:13:10.890Z,9.80
2022-11-25T06:15:43.226Z,10.30
2022-11-25T06:18:15.245Z,10.27
2022-11-25T06:20:45.232Z,10.10
2022-11-25T06:23:13.947Z,9.63
2022-11-25T06:25:42.501Z,8.70
2022-11-25T06:28:13.371Z,9.83
2022-11-25T06:30:45.885Z,9.07
2022-11-25T06:33:24.673Z,9.30
2022-11-25T06:35:54.665Z,8.33
2022-11-25T06:38:23.010Z,8.97
2022-11-25T06:40:52.416Z,8.07
2022-11-25T06:43:22.730Z,8.33
2022-11-25T06:45:50.993Z,8.80
2022-11-25T06:48:19.362Z,7.43
2022-11-25T06:50:59.701Z,7.33
2022-11-25T06:53:28.951Z,7.17
2022-11-25T06:56:09.638Z,7.43
2022-11-25T06:58:38.848Z,6.90
2022-11-25T07:01:12.778Z,6.67
2022-11-25T07:03:41.924Z,6.73
2022-11-25T07:06:14.005Z,8.13
2022-11-25T07:08:43.084Z,7.30
2022-11-25T07:11:17.203Z,7.60
2022-11-25T07:13:46.097Z,8.60
2022-11-25T07:16:15.939Z,9.03
2022-11-25T07:18:45.529Z,9.17
2022-11-25T07:21:18.495Z,8.47
2022-11-25T07:23:48.163Z,9.53
2022-11-25T07:26:21.624Z,10.43
2022-11-25T07:28:51.164Z,8.83
2022-11-25T07:31:24.567Z,9.10
2022-11-25T07:33:55.884Z,9.87
2022-11-25T07:36:26.851Z,8.23
2022-11-25T07:38:55.927Z,8.80
2022-11-25T07:41:27.342Z,8.67
2022-11-25T07:43:58.689Z,7.73
2022-11-25T07:46:29.912Z,7.30
2022-11-25T07:49:00.755Z,7.53
2022-11-25T07:51:33.422Z,7.83
2022-11-25T07:54:04.521Z,7.43
2022-11-25T07:56:35.540Z,8.57
2022-11-25T07:59:04.661Z,8.37
2022-11-25T08:01:33.331Z,8.03
2022-11-25T08:04:01.657Z,8.47
2022-11-25T08:06:31.760Z,9.30
2022-11-25T08:09:00.139Z,9.80
2022-11-25T08:11:33.063Z,9.77
2022-11-25T08:14:01.535Z,10.20
2022-11-25T08:16:32.341Z,9.80
2022-11-25T08:19:03.129Z,10.47
2022-11-25T08:21:33.157Z,10.27
2022-11-25T08:24:03.066Z,10.13
2022-11-25T08:26:36.321Z,10.80
2022-11-25T08:29:06.857Z,10.43
2022-11-25T08:31:38.736Z,9.70
2022-11-25T08:34:08.407Z,9.37
2022-11-25T08:36:41.485Z,9.43
2022-11-25T08:39:36.191Z,9.03
2022-11-25T08:42:04.889Z,9.20
2022-11-25T08:44:33.281Z,11.63
2022-11-25T08:47:01.712Z,14.57
2022-11-25T08:49:34.986Z,13.03
2022-11-25T08:52:08.740Z,10.50
2022-11-25T08:54:37.422Z,11.03
2022-11-25T08:57:06.207Z,11.40
2022-11-25T08:59:35.362Z,10.43
2022-11-25T09:02:04.534Z,11.07
2022-11-25T09:04:33.736Z,12.70
2022-11-25T09:07:02.150Z,14.43
2022-11-25T09:09:32.662Z,12.20
2022-11-25T09:12:01.343Z,12.10
2022-11-25T09:14:29.734Z,12.03
2022-11-25T09:16:58.233Z,11.70
2022-11-25T09:19:26.634Z,11.10
2022-11-25T09:21:55.484Z,10.00
2022-11-25T09:24:24.084Z,10.27
2022-11-25T09:26:54.722Z,9.87
2022-11-25T09:29:23.079Z,10.10
2022-11-25T09:31:54.771Z,11.90
2022-11-25T09:34:23.591Z,9.80
2022-11-25T09:36:52.360Z,11.87
2022-11-25T09:39:21.115Z,10.30
2022-11-25T09:42:28.643Z,8.50
2022-11-25T09:45:34.613Z,8.20
2022-11-25T09:48:19.932Z,8.07
2022-11-25T09:51:09.575Z,7.50
2022-11-25T09:53:46.494Z,7.27
2022-11-25T09:56:29.559Z,7.50
2022-11-25T09:59:06.791Z,7.77
2022-11-25T10:01:47.629Z,8.37
2022-11-25T10:04:25.690Z,10.80
2022-11-25T10:07:01.138Z,9.97
2022-11-25T10:09:35.674Z,9.00
2022-11-25T10:12:14.717Z,9.07
2022-11-25T10:14:49.843Z,8.20
2022-11-25T10:17:32.189Z,9.30
2022-11-25T10:20:06.626Z,9.47
2022-11-25T10:22:40.259Z,9.87
2022-11-25T10:25:16.521Z,9.50
2022-11-25T10:27:51.067Z,9.57
2022-11-25T10:30:25.136Z,8.60
2022-11-25T10:33:02.495Z,8.47
2022-11-25T10:35:36.888Z,8.47
2022-11-25T10:38:18.652Z,8.93
2022-11-25T10:40:52.688Z,8.33
2022-11-25T10:43:21.326Z,7.90
2022-11-25T10:46:08.098Z,8.63
2022-11-25T10:49:01.444Z,8.27
2022-11-25T10:51:44.589Z,8.77
2022-11-25T10:54:26.893Z,8.27
2022-11-25T10:56:59.585Z,8.60
2022-11-25T10:59:32.284Z,7.83
2022-11-25T11:02:22.393Z,7.60
2022-11-25T11:04:56.990Z,6.63
2022-11-25T11:07:27.680Z,6.03
2022-11-25T11:10:17.515Z,7.00
2022-11-25T11:13:00.968Z,6.63
2022-11-25T11:15:32.195Z,7.00
2022-11-25T11:18:24.323Z,6.93
2022-11-25T11:20:55.817Z,7.67
2022-11-25T11:23:25.070Z,7.10
2022-11-25T11:26:01.407Z,7.23
2022-11-25T11:28:40.119Z,7.30
2022-11-25T11:31:19.117Z,7.47
2022-11-25T11:34:04.507Z,7.70
2022-11-25T11:36:54.179Z,8.53
2022-11-25T11:40:00.212Z,7.87
2022-11-25T11:42:39.566Z,8.60
2022-11-25T11:45:35.836Z,8.20
2022-11-25T11:48:13.649Z,7.77
2022-11-25T11:50:50.192Z,8.30
2022-11-25T11:53:31.404Z,7.93
2022-11-25T11:59:28.524Z,7.77
2022-11-25T12:02:17.716Z,7.13
2022-11-25T12:04:58.964Z,7.77
2022-11-25T12:07:37.625Z,8.13
2022-11-25T12:10:21.188Z,7.50
2022-11-25T12:12:56.062Z,7.70
2022-11-25T12:15:37.946Z,7.77
2022-11-25T12:18:21.024Z,6.93
2022-11-25T12:20:59.293Z,6.17
2022-11-25T12:23:44.251Z,6.17
2022-11-25T12:26:23.328Z,6.27
2022-11-25T12:28:58.610Z,6.10
2022-11-25T12:31:30.416Z,6.43
2022-11-25T12:34:10.536Z,6.83
2022-11-25T12:36:41.185Z,6.40
2022-11-25T12:39:26.569Z,6.73
2022-11-25T12:41:59.713Z,6.67
2022-11-25T12:44:37.075Z,6.53
2022-11-25T12:47:11.434Z,6.77
2022-11-25T12:49:44.872Z,7.40
2022-11-25T12:52:39.022Z,7.40
2022-11-25T12:55:16.354Z,7.53
2022-11-25T12:58:19.160Z,7.57
2022-11-25T13:01:38.201Z,7.37
2022-11-25T13:04:50.840Z,7.10
2022-11-25T13:07:45.031Z,8.47
2022-11-25T13:11:03.825Z,7.70
2022-11-25T13:13:51.877Z,7.83
2022-11-25T13:16:23.269Z,8.30
2022-11-25T13:18:52.847Z,7.80
2022-11-25T13:21:23.113Z,8.20
2022-11-25T13:23:56.340Z,7.90
2022-11-25T13:26:51.596Z,7.67
2022-11-25T13:30:02.886Z,8.37
2022-11-25T13:32:42.283Z,6.93
2022-11-25T13:35:38.926Z,7.70
2022-11-25T13:38:39.834Z,8.17
2022-11-25T13:41:35.214Z,8.43
2022-11-25T13:44:20.310Z,14.43
2022-11-25T13:46:52.587Z,11.03
2022-11-25T13:49:35.631Z,11.40
2022-11-25T13:52:37.222Z,10.13
2022-11-25T13:55:33.085Z,9.27
2022-11-25T13:58:23.516Z,9.50
2022-11-25T14:01:07.072Z,9.27
2022-11-25T14:04:05.871Z,9.40
2022-11-25T14:07:04.856Z,9.97
2022-11-25T14:09:54.370Z,9.23
2022-11-25T14:12:54.891Z,9.50
2022-11-25T14:16:10.590Z,10.63
2022-11-25T14:19:50.270Z,10.07
2022-11-25T14:22:35.780Z,10.87
2022-11-25T14:25:17.482Z,10.17
2022-11-25T14:27:49.905Z,10.97
2022-11-25T14:30:19.820Z,11.10
2022-11-25T14:32:57.877Z,11.23
2022-11-25T14:35:33.910Z,11.67
2022-11-25T14:38:07.846Z,13.20
2022-11-25T14:40:42.579Z,14.27
2022-11-25T14:43:18.131Z,14.03
2022-11-25T14:45:46.858Z,12.80
2022-11-25T14:48:18.813Z,12.90
2022-11-25T14:50:59.707Z,13.20
2022-11-25T14:53:29.818Z,15.10
2022-11-25T14:56:00.793Z,16.33
2022-11-25T14:58:29.390Z,15.27
2022-11-25T15:01:05.401Z,13.63
2022-11-25T15:03:35.297Z,12.67
2022-11-25T15:06:07.055Z,11.93
2022-11-25T15:08:41.047Z,11.27
2022-11-25T15:11:17.624Z,11.90
2022-11-25T15:13:48.719Z,14.97
2022-11-25T15:16:19.611Z,15.17
2022-11-25T15:18:54.190Z,16.13
2022-11-25T15:21:28.603Z,14.30
2022-11-25T15:23:57.394Z,16.27
2022-11-25T15:26:31.425Z,14.73
2022-11-25T15:29:02.365Z,15.50
2022-11-25T15:31:33.663Z,13.20
2022-11-25T15:34:08.032Z,12.77
2022-11-25T15:36:36.712Z,14.17
2022-11-25T15:39:25.374Z,13.77
2022-11-25T15:41:57.123Z,13.50
2022-11-25T15:44:28.527Z,12.30
2022-11-25T15:47:05.146Z,13.17
2022-11-25T15:49:37.347Z,13.47
2022-11-25T15:52:16.276Z,15.70
2022-11-25T15:54:48.016Z,14.27
2022-11-25T15:57:20.638Z,17.90
2022-11-25T16:00:03.391Z,18.30
2022-11-25T16:02:53.037Z,16.63
2022-11-25T16:05:37.041Z,16.43
2022-11-25T16:08:33.530Z,16.87
2022-11-25T16:11:15.396Z,16.47
2022-11-25T16:13:44.364Z,18.63
2022-11-25T16:16:25.098Z,18.70
2022-11-25T16:19:17.841Z,18.40
2022-11-25T16:21:57.775Z,19.50
2022-11-25T16:24:42.675Z,21.03
2022-11-25T16:27:22.865Z,20.67
2022-11-25T16:29:58.439Z,25.30
2022-11-25T16:32:30.291Z,22.40
2022-11-25T16:35:13.572Z,22.00
2022-11-25T16:37:48.572Z,24.90
2022-11-25T16:40:19.801Z,22.33
2022-11-25T16:42:50.834Z,22.53
2022-11-25T16:45:23.959Z,20.20
2022-11-25T16:47:52.358Z,18.77
2022-11-25T16:50:22.750Z,18.47
2022-11-25T16:52:52.464Z,18.00
2022-11-25T16:55:20.918Z,19.20
2022-11-25T16:57:50.646Z,24.33
2022-11-25T17:00:20.016Z,25.37
2022-11-25T17:02:48.672Z,21.23
2022-11-25T17:05:21.244Z,21.23
2022-11-25T17:07:53.383Z,20.57
2022-11-25T17:10:22.859Z,19.90
2022-11-25T17:12:51.683Z,19.50
2022-11-25T17:15:29.292Z,19.63
2022-11-25T17:17:58.063Z,22.10
2022-11-25T17:20:26.995Z,20.77
2022-11-25T17:22:58.140Z,20.50
2022-11-25T17:25:33.845Z,21.70
2022-11-25T17:28:05.832Z,20.57
2022-11-25T17:30:34.551Z,22.43
2022-11-25T17:33:06.561Z,22.80
2022-11-25T17:35:35.294Z,21.83
2022-11-25T17:38:14.454Z,19.93
2022-11-25T17:40:44.622Z,23.43
2022-11-25T17:43:18.671Z,23.60
2022-11-25T17:45:48.160Z,22.60
2022-11-25T17:48:18.947Z,20.53
2022-11-25T17:50:47.946Z,20.20
2022-11-25T17:53:18.072Z,20.30
2022-11-25T17:55:46.782Z,19.47
2022-11-25T17:58:16.062Z,19.10
2022-11-25T18:00:45.070Z,17.27
2022-11-25T18:03:17.057Z,15.60
2022-11-25T18:05:46.149Z,17.10
2022-11-25T18:08:14.472Z,17.23
2022-11-25T18:10:47.742Z,18.40
2022-11-25T18:13:18.156Z,18.00
2022-11-25T18:15:46.875Z,20.37
2022-11-25T18:18:22.455Z,17.17
2022-11-25T18:20:51.131Z,17.60
2022-11-25T18:23:20.617Z,18.80
2022-11-25T18:25:50.924Z,17.50
2022-11-25T18:28:24.190Z,17.57
2022-11-25T18:30:55.863Z,19.53
2022-11-25T18:33:24.426Z,18.70
2022-11-25T18:35:53.176Z,19.00
2022-11-25T18:38:21.812Z,19.10
2022-11-25T18:40:54.051Z,18.47
2022-11-25T18:43:26.917Z,18.80
2022-11-25T18:45:57.203Z,19.07
2022-11-25T18:48:28.257Z,21.77
2022-11-25T18:50:57.453Z,23.60
2022-11-25T18:53:25.851Z,22.67
2022-11-25T18:55:55.690Z,23.10
2022-11-25T18:58:28.069Z,22.40
2022-11-25T19:01:02.623Z,24.10
2022-11-25T19:03:31.450Z,23.10
2022-11-25T19:06:01.543Z,21.83
2022-11-25T19:08:30.346Z,22.93
2022-11-25T19:10:59.981Z,21.23
2022-11-25T19:13:33.875Z,21.57
2022-11-25T19:16:08.974Z,22.67
2022-11-25T19:18:38.056Z,23.07
2022-11-25T19:21:06.908Z,24.30
2022-11-25T19:23:36.183Z,24.07
2022-11-25T19:26:14.773Z,25.73
2022-11-25T19:28:44.334Z,26.53
2022-11-25T19:31:14.454Z,26.40
2022-11-25T19:33:46.457Z,32.13
2022-11-25T19:36:22.177Z,45.93
2022-11-25T19:38:51.184Z,30.40
2022-11-25T19:41:21.244Z,32.80
2022-11-25T19:43:49.925Z,27.83
2022-11-25T19:46:30.130Z,28.03
2022-11-25T19:49:07.090Z,23.67
2022-11-25T19:51:36.556Z,23.00
2022-11-25T19:54:05.519Z,22.10
2022-11-25T19:56:37.591Z,19.90
2022-11-25T19:59:06.033Z,18.77
2022-11-25T20:01:39.014Z,19.70
2022-11-25T20:04:09.596Z,17.00
2022-11-25T20:06:38.317Z,17.53
2022-11-25T20:09:12.535Z,16.50
2022-11-25T20:11:43.219Z,20.27
2022-11-25T20:14:12.372Z,20.83
2022-11-25T20:16:43.105Z,19.60
2022-11-25T20:19:18.867Z,18.27
2022-11-25T20:21:48.636Z,19.80
2022-11-25T20:24:20.794Z,18.50
2022-11-25T20:26:51.565Z,18.57
2022-11-25T20:29:27.501Z,19.83
2022-11-25T20:31:59.222Z,20.93
2022-11-25T20:34:28.414Z,24.43
2022-11-25T20:36:57.213Z,25.10
2022-11-25T20:39:26.050Z,22.37
2022-11-25T20:41:55.754Z,22.80
2022-11-25T20:44:24.596Z,25.23
2022-11-25T20:46:53.392Z,22.20
2022-11-25T20:49:27.554Z,23.00
2022-11-25T20:51:56.190Z,20.90
2022-11-25T20:54:25.038Z,21.57
2022-11-25T20:56:55.673Z,21.67
2022-11-25T20:59:26.330Z,20.67
2022-11-25T21:01:55.148Z,22.57
2022-11-25T21:04:23.766Z,19.10
2022-11-25T21:06:52.345Z,20.20
2022-11-25T21:09:26.047Z,20.53
2022-11-25T21:11:54.599Z,21.70
2022-11-25T21:14:24.644Z,20.60
2022-11-25T21:16:53.018Z,23.13
2022-11-25T21:19:21.405Z,24.13
2022-11-25T21:21:52.020Z,28.80
2022-11-25T21:24:33.120Z,30.77
2022-11-25T21:27:09.913Z,32.87
2022-11-25T21:29:44.808Z,29.20
2022-11-25T21:32:22.934Z,29.33
2022-11-25T21:34:52.461Z,34.70
2022-11-25T21:37:30.877Z,32.57
2022-11-25T21:40:00.472Z,28.97
2022-11-25T21:42:31.187Z,30.87
2022-11-25T21:45:01.143Z,29.20
2022-11-25T21:47:31.623Z,30.57
2022-11-25T21:50:00.427Z,27.43
2022-11-25T21:52:29.221Z,27.27
2022-11-25T21:54:57.838Z,26.33
2022-11-25T21:57:30.151Z,23.83
2022-11-25T22:00:00.097Z,27.07
2022-11-25T22:02:28.676Z,24.57
2022-11-25T22:04:58.904Z,24.83
2022-11-25T22:07:30.784Z,24.10
2022-11-25T22:09:59.794Z,21.80
2022-11-25T22:12:35.388Z,20.33
2022-11-25T22:15:14.805Z,20.53
2022-11-25T22:17:43.500Z,22.20
2022-11-25T22:20:25.537Z,22.50
2022-11-25T22:22:54.242Z,19.87
2022-11-25T22:25:25.560Z,24.00
2022-11-25T22:27:54.618Z,25.63
2022-11-25T22:30:25.633Z,22.60
2022-11-25T22:33:01.907Z,23.80
2022-11-25T22:35:30.834Z,21.83
2022-11-25T22:37:59.219Z,20.67
2022-11-25T22:40:27.739Z,23.57
2022-11-25T22:42:57.481Z,18.40
2022-11-25T22:45:32.997Z,20.40
2022-11-25T22:48:06.081Z,20.43
2022-11-25T22:50:36.065Z,25.40
2022-11-25T22:53:04.472Z,23.83
2022-11-25T22:55:34.431Z,23.37
2022-11-25T22:58:04.580Z,24.73
2022-11-25T23:00:37.319Z,22.63
2022-11-25T23:03:14.167Z,20.50
2022-11-25T23:05:42.439Z,20.27
2022-11-25T23:08:15.596Z,20.83
2022-11-25T23:10:44.277Z,21.13
2022-11-25T23:13:17.068Z,20.60
2022-11-25T23:15:54.124Z,20.63
2022-11-25T23:18:28.035Z,23.07
2022-11-25T23:20:56.489Z,20.33
2022-11-25T23:23:27.653Z,23.10
2022-11-25T23:25:57.964Z,21.47
2022-11-25T23:28:26.646Z,24.67
2022-11-25T23:31:01.669Z,23.13
2022-11-25T23:33:37.032Z,23.87
2022-11-25T23:36:10.591Z,23.73
2022-11-25T23:38:45.106Z,26.13
2022-11-25T23:41:18.954Z,22.90
2022-11-25T23:43:47.624Z,22.77
2022-11-25T23:46:20.665Z,23.33
2022-11-25T23:48:56.843Z,23.50
2022-11-25T23:51:28.230Z,23.80
2022-11-25T23:53:59.085Z,24.63
2022-11-25T23:56:29.603Z,23.30
2022-11-25T23:58:57.921Z,21.63
